sensor_id;sensor_type;location;lat;lon;timestamp;pressure;altitude;pressure_sealevel;temperature;humidity
64711;BME280;51139;45.626;6.850;2022-12-07T00:01:24;81479.94;;;-2.23;52.61
64711;BME280;51139;45.626;6.850;2022-12-07T00:03:52;81488.56;;;-2.15;52.82
64711;BME280;51139;45.626;6.850;2022-12-07T00:06:18;81480.78;;;-2.15;52.44
64711;BME280;51139;45.626;6.850;2022-12-07T00:08:45;81484.38;;;-2.18;52.06
64711;BME280;51139;45.626;6.850;2022-12-07T00:11:20;81475.88;;;-2.18;51.54
64711;BME280;51139;45.626;6.850;2022-12-07T00:13:47;81477.53;;;-2.21;51.35
64711;BME280;51139;45.626;6.850;2022-12-07T00:16:17;81475.59;;;-2.34;51.83
64711;BME280;51139;45.626;6.850;2022-12-07T00:18:44;81468.28;;;-2.36;52.52
64711;BME280;51139;45.626;6.850;2022-12-07T00:21:13;81474.88;;;-2.35;53.29
64711;BME280;51139;45.626;6.850;2022-12-07T00:23:40;81463.03;;;-2.30;52.53
64711;BME280;51139;45.626;6.850;2022-12-07T00:26:09;81464.56;;;-2.21;52.84
64711;BME280;51139;45.626;6.850;2022-12-07T00:28:35;81462.47;;;-2.23;52.63
64711;BME280;51139;45.626;6.850;2022-12-07T00:31:11;81462.41;;;-2.36;52.50
64711;BME280;51139;45.626;6.850;2022-12-07T00:33:37;81461.41;;;-2.52;53.01
64711;BME280;51139;45.626;6.850;2022-12-07T00:36:06;81467.00;;;-2.48;52.41
64711;BME280;51139;45.626;6.850;2022-12-07T00:38:34;81468.34;;;-2.41;52.43
64711;BME280;51139;45.626;6.850;2022-12-07T00:41:05;81459.59;;;-2.38;52.50
64711;BME280;51139;45.626;6.850;2022-12-07T00:43:31;81449.78;;;-2.45;53.22
64711;BME280;51139;45.626;6.850;2022-12-07T00:45:57;81456.22;;;-2.52;53.31
64711;BME280;51139;45.626;6.850;2022-12-07T00:48:24;81455.31;;;-2.55;53.10
64711;BME280;51139;45.626;6.850;2022-12-07T00:50:50;81453.00;;;-2.39;52.99
64711;BME280;51139;45.626;6.850;2022-12-07T00:53:16;81454.53;;;-2.30;52.71
64711;BME280;51139;45.626;6.850;2022-12-07T00:55:41;81444.56;;;-2.26;52.55
64711;BME280;51139;45.626;6.850;2022-12-07T00:58:07;81442.84;;;-2.18;52.66
64711;BME280;51139;45.626;6.850;2022-12-07T01:00:35;81444.44;;;-2.34;52.86
64711;BME280;51139;45.626;6.850;2022-12-07T01:03:00;81450.41;;;-2.39;52.96
64711;BME280;51139;45.626;6.850;2022-12-07T01:05:26;81446.41;;;-2.40;53.13
64711;BME280;51139;45.626;6.850;2022-12-07T01:07:51;81449.00;;;-2.40;53.25
64711;BME280;51139;45.626;6.850;2022-12-07T01:10:16;81445.00;;;-2.41;53.02
64711;BME280;51139;45.626;6.850;2022-12-07T01:12:42;81441.22;;;-2.40;52.91
64711;BME280;51139;45.626;6.850;2022-12-07T01:15:08;81445.56;;;-2.48;53.28
64711;BME280;51139;45.626;6.850;2022-12-07T01:17:34;81445.00;;;-2.41;53.36
64711;BME280;51139;45.626;6.850;2022-12-07T01:19:59;81449.06;;;-2.46;54.06
64711;BME280;51139;45.626;6.850;2022-12-07T01:22:25;81448.00;;;-2.56;53.90
64711;BME280;51139;45.626;6.850;2022-12-07T01:24:51;81446.81;;;-2.55;53.14
64711;BME280;51139;45.626;6.850;2022-12-07T01:27:16;81450.13;;;-2.55;52.96
64711;BME280;51139;45.626;6.850;2022-12-07T01:29:41;81444.09;;;-2.44;52.76
64711;BME280;51139;45.626;6.850;2022-12-07T01:32:07;81438.34;;;-2.37;51.88
64711;BME280;51139;45.626;6.850;2022-12-07T01:34:32;81447.72;;;-2.33;51.67
64711;BME280;51139;45.626;6.850;2022-12-07T01:36:57;81444.50;;;-2.40;51.11
64711;BME280;51139;45.626;6.850;2022-12-07T01:39:23;81436.94;;;-2.38;50.77
64711;BME280;51139;45.626;6.850;2022-12-07T01:41:49;81446.84;;;-2.36;50.98
64711;BME280;51139;45.626;6.850;2022-12-07T01:44:29;81441.00;;;-2.42;50.76
64711;BME280;51139;45.626;6.850;2022-12-07T01:46:58;81445.22;;;-2.39;50.53
64711;BME280;51139;45.626;6.850;2022-12-07T01:49:40;81447.59;;;-2.41;49.79
64711;BME280;51139;45.626;6.850;2022-12-07T01:52:20;81446.00;;;-2.44;49.98
64711;BME280;51139;45.626;6.850;2022-12-07T01:54:50;81441.38;;;-2.52;51.28
64711;BME280;51139;45.626;6.850;2022-12-07T01:57:17;81446.25;;;-2.48;51.65
64711;BME280;51139;45.626;6.850;2022-12-07T01:59:45;81446.75;;;-2.50;51.62
64711;BME280;51139;45.626;6.850;2022-12-07T02:02:23;81444.16;;;-2.50;52.03
64711;BME280;51139;45.626;6.850;2022-12-07T02:04:51;81446.88;;;-2.61;51.13
64711;BME280;51139;45.626;6.850;2022-12-07T02:07:18;81446.88;;;-2.61;51.55
64711;BME280;51139;45.626;6.850;2022-12-07T02:09:45;81442.53;;;-2.72;51.68
64711;BME280;51139;45.626;6.850;2022-12-07T02:12:10;81437.59;;;-2.75;51.28
64711;BME280;51139;45.626;6.850;2022-12-07T02:14:35;81438.09;;;-2.77;52.06
64711;BME280;51139;45.626;6.850;2022-12-07T02:17:15;81424.22;;;-2.80;52.45
64711;BME280;51139;45.626;6.850;2022-12-07T02:26:09;81428.00;;;-2.81;50.25
64711;BME280;51139;45.626;6.850;2022-12-07T02:31:33;81429.06;;;-2.70;50.17
64711;BME280;51139;45.626;6.850;2022-12-07T02:34:17;81426.53;;;-2.76;50.47
64711;BME280;51139;45.626;6.850;2022-12-07T02:36:48;81420.53;;;-2.65;50.21
64711;BME280;51139;45.626;6.850;2022-12-07T02:39:20;81424.16;;;-2.74;49.60
64711;BME280;51139;45.626;6.850;2022-12-07T02:41:51;81412.88;;;-2.76;49.88
64711;BME280;51139;45.626;6.850;2022-12-07T02:44:20;81411.47;;;-2.78;50.19
64711;BME280;51139;45.626;6.850;2022-12-07T02:46:55;81409.44;;;-2.66;50.19
64711;BME280;51139;45.626;6.850;2022-12-07T02:49:24;81411.19;;;-2.74;49.82
64711;BME280;51139;45.626;6.850;2022-12-07T02:51:51;81405.09;;;-2.76;49.44
64711;BME280;51139;45.626;6.850;2022-12-07T02:54:18;81404.41;;;-2.77;49.53
64711;BME280;51139;45.626;6.850;2022-12-07T03:10:13;81398.56;;;-2.83;50.13
64711;BME280;51139;45.626;6.850;2022-12-07T03:13:04;81408.34;;;-2.95;50.26
64711;BME280;51139;45.626;6.850;2022-12-07T03:15:42;81401.63;;;-3.04;49.57
64711;BME280;51139;45.626;6.850;2022-12-07T03:18:10;81409.72;;;-2.88;49.29
64711;BME280;51139;45.626;6.850;2022-12-07T03:20:39;81399.25;;;-2.83;49.31
64711;BME280;51139;45.626;6.850;2022-12-07T03:23:08;81394.66;;;-2.71;49.33
64711;BME280;51139;45.626;6.850;2022-12-07T03:25:40;81399.28;;;-2.64;49.76
64711;BME280;51139;45.626;6.850;2022-12-07T03:28:08;81397.25;;;-2.71;50.62
64711;BME280;51139;45.626;6.850;2022-12-07T03:30:39;81409.28;;;-2.73;51.27
64711;BME280;51139;45.626;6.850;2022-12-07T03:33:11;81398.91;;;-2.92;51.94
64711;BME280;51139;45.626;6.850;2022-12-07T03:35:42;81398.06;;;-2.82;51.99
64711;BME280;51139;45.626;6.850;2022-12-07T03:38:14;81399.56;;;-2.86;51.97
64711;BME280;51139;45.626;6.850;2022-12-07T03:40:47;81401.84;;;-3.02;51.78
64711;BME280;51139;45.626;6.850;2022-12-07T03:43:18;81398.50;;;-2.97;51.34
64711;BME280;51139;45.626;6.850;2022-12-07T03:51:24;81399.47;;;-3.25;52.12
64711;BME280;51139;45.626;6.850;2022-12-07T03:53:58;81397.84;;;-3.28;52.50
64711;BME280;51139;45.626;6.850;2022-12-07T03:56:26;81391.84;;;-3.17;52.82
64711;BME280;51139;45.626;6.850;2022-12-07T03:58:53;81396.97;;;-3.11;52.73
64711;BME280;51139;45.626;6.850;2022-12-07T04:01:19;81394.53;;;-3.03;52.33
64711;BME280;51139;45.626;6.850;2022-12-07T04:03:44;81389.66;;;-3.07;51.86
64711;BME280;51139;45.626;6.850;2022-12-07T04:06:10;81384.13;;;-2.98;51.60
64711;BME280;51139;45.626;6.850;2022-12-07T04:08:35;81383.53;;;-2.66;50.40
64711;BME280;51139;45.626;6.850;2022-12-07T04:11:01;81377.06;;;-2.78;50.01
64711;BME280;51139;45.626;6.850;2022-12-07T04:13:26;81380.44;;;-2.83;50.02
64711;BME280;51139;45.626;6.850;2022-12-07T04:15:51;81382.09;;;-3.05;51.30
64711;BME280;51139;45.626;6.850;2022-12-07T04:18:17;81380.13;;;-2.99;52.47
64711;BME280;51139;45.626;6.850;2022-12-07T04:20:42;81379.41;;;-2.99;52.93
64711;BME280;51139;45.626;6.850;2022-12-07T04:23:08;81381.88;;;-3.07;53.40
64711;BME280;51139;45.626;6.850;2022-12-07T04:25:33;81380.03;;;-3.12;53.89
64711;BME280;51139;45.626;6.850;2022-12-07T04:27:58;81367.94;;;-3.04;54.25
64711;BME280;51139;45.626;6.850;2022-12-07T04:30:24;81375.06;;;-3.10;53.96
64711;BME280;51139;45.626;6.850;2022-12-07T04:32:50;81379.44;;;-3.24;54.43
64711;BME280;51139;45.626;6.850;2022-12-07T04:35:15;81376.47;;;-3.09;54.17
64711;BME280;51139;45.626;6.850;2022-12-07T04:37:40;81380.34;;;-2.97;53.61
64711;BME280;51139;45.626;6.850;2022-12-07T04:40:10;81376.81;;;-2.99;53.82
64711;BME280;51139;45.626;6.850;2022-12-07T04:42:36;81372.63;;;-3.02;53.81
64711;BME280;51139;45.626;6.850;2022-12-07T04:45:02;81370.16;;;-3.14;53.98
64711;BME280;51139;45.626;6.850;2022-12-07T04:47:28;81378.81;;;-3.30;55.31
64711;BME280;51139;45.626;6.850;2022-12-07T04:49:53;81374.66;;;-3.39;55.82
64711;BME280;51139;45.626;6.850;2022-12-07T04:52:18;81380.03;;;-3.37;56.28
64711;BME280;51139;45.626;6.850;2022-12-07T04:54:44;81380.31;;;-3.41;55.09
64711;BME280;51139;45.626;6.850;2022-12-07T04:57:09;81374.94;;;-3.43;54.73
64711;BME280;51139;45.626;6.850;2022-12-07T04:59:34;81375.16;;;-3.41;55.23
64711;BME280;51139;45.626;6.850;2022-12-07T05:02:00;81373.75;;;-3.42;55.74
64711;BME280;51139;45.626;6.850;2022-12-07T05:04:25;81374.09;;;-3.32;55.33
64711;BME280;51139;45.626;6.850;2022-12-07T05:06:50;81369.25;;;-3.41;54.62
64711;BME280;51139;45.626;6.850;2022-12-07T05:09:16;81367.25;;;-3.29;54.33
64711;BME280;51139;45.626;6.850;2022-12-07T05:11:41;81370.13;;;-3.33;54.94
64711;BME280;51139;45.626;6.850;2022-12-07T05:14:18;81375.25;;;-3.27;54.10
64711;BME280;51139;45.626;6.850;2022-12-07T05:16:45;81372.50;;;-3.35;54.71
64711;BME280;51139;45.626;6.850;2022-12-07T05:19:11;81371.84;;;-3.41;54.58
64711;BME280;51139;45.626;6.850;2022-12-07T05:21:37;81370.66;;;-3.40;54.63
64711;BME280;51139;45.626;6.850;2022-12-07T05:24:04;81368.63;;;-3.47;54.65
64711;BME280;51139;45.626;6.850;2022-12-07T05:26:30;81362.88;;;-3.40;53.66
64711;BME280;51139;45.626;6.850;2022-12-07T05:28:56;81362.88;;;-3.40;53.08
64711;BME280;51139;45.626;6.850;2022-12-07T05:31:23;81360.91;;;-3.53;52.76
64711;BME280;51139;45.626;6.850;2022-12-07T05:33:48;81359.94;;;-3.50;52.35
64711;BME280;51139;45.626;6.850;2022-12-07T05:36:14;81355.44;;;-3.49;52.38
64711;BME280;51139;45.626;6.850;2022-12-07T05:38:40;81362.84;;;-3.34;51.67
64711;BME280;51139;45.626;6.850;2022-12-07T05:41:07;81355.97;;;-3.32;50.98
64711;BME280;51139;45.626;6.850;2022-12-07T05:43:53;81350.78;;;-3.32;50.54
64711;BME280;51139;45.626;6.850;2022-12-07T05:46:18;81353.25;;;-3.40;51.12
64711;BME280;51139;45.626;6.850;2022-12-07T05:48:43;81352.59;;;-3.46;51.24
64711;BME280;51139;45.626;6.850;2022-12-07T05:51:09;81348.66;;;-3.53;51.25
64711;BME280;51139;45.626;6.850;2022-12-07T05:53:34;81357.06;;;-3.46;51.36
64711;BME280;51139;45.626;6.850;2022-12-07T05:55:59;81354.53;;;-3.52;50.97
64711;BME280;51139;45.626;6.850;2022-12-07T05:58:25;81346.28;;;-3.50;51.46
64711;BME280;51139;45.626;6.850;2022-12-07T06:01:09;81346.50;;;-3.48;51.60
64711;BME280;51139;45.626;6.850;2022-12-07T06:03:34;81350.97;;;-3.49;52.01
64711;BME280;51139;45.626;6.850;2022-12-07T06:05:59;81351.19;;;-3.47;51.99
64711;BME280;51139;45.626;6.850;2022-12-07T06:08:25;81356.09;;;-3.43;51.55
64711;BME280;51139;45.626;6.850;2022-12-07T06:10:50;81346.88;;;-3.39;52.10
64711;BME280;51139;45.626;6.850;2022-12-07T06:13:35;81344.00;;;-3.35;51.98
64711;BME280;51139;45.626;6.850;2022-12-07T06:16:01;81340.72;;;-3.35;51.70
64711;BME280;51139;45.626;6.850;2022-12-07T06:18:26;81349.50;;;-3.44;52.33
64711;BME280;51139;45.626;6.850;2022-12-07T06:20:52;81352.53;;;-3.40;52.46
64711;BME280;51139;45.626;6.850;2022-12-07T06:23:17;81346.03;;;-3.47;53.18
64711;BME280;51139;45.626;6.850;2022-12-07T06:25:45;81344.31;;;-3.44;52.63
64711;BME280;51139;45.626;6.850;2022-12-07T06:28:10;81351.41;;;-3.45;52.98
64711;BME280;51139;45.626;6.850;2022-12-07T06:30:36;81341.53;;;-3.46;51.74
64711;BME280;51139;45.626;6.850;2022-12-07T06:33:01;81343.47;;;-3.53;51.76
64711;BME280;51139;45.626;6.850;2022-12-07T06:35:26;81341.09;;;-3.50;51.54
64711;BME280;51139;45.626;6.850;2022-12-07T06:37:52;81339.69;;;-3.52;51.47
64711;BME280;51139;45.626;6.850;2022-12-07T06:40:17;81333.84;;;-3.52;51.67
64711;BME280;51139;45.626;6.850;2022-12-07T06:42:43;81333.97;;;-3.44;51.92
64711;BME280;51139;45.626;6.850;2022-12-07T06:45:08;81343.13;;;-3.43;52.23
64711;BME280;51139;45.626;6.850;2022-12-07T06:47:34;81330.50;;;-3.28;52.07
64711;BME280;51139;45.626;6.850;2022-12-07T06:49:59;81338.38;;;-3.39;51.95
64711;BME280;51139;45.626;6.850;2022-12-07T06:52:24;81334.78;;;-3.30;52.21
64711;BME280;51139;45.626;6.850;2022-12-07T06:54:50;81337.06;;;-3.27;52.18
64711;BME280;51139;45.626;6.850;2022-12-07T06:57:15;81338.69;;;-3.24;52.22
64711;BME280;51139;45.626;6.850;2022-12-07T06:59:41;81343.75;;;-3.31;52.23
64711;BME280;51139;45.626;6.850;2022-12-07T07:02:08;81338.69;;;-3.43;52.58
64711;BME280;51139;45.626;6.850;2022-12-07T07:04:33;81339.22;;;-3.50;52.77
64711;BME280;51139;45.626;6.850;2022-12-07T07:06:59;81342.44;;;-3.44;52.38
64711;BME280;51139;45.626;6.850;2022-12-07T07:09:24;81338.50;;;-3.50;52.05
64711;BME280;51139;45.626;6.850;2022-12-07T07:11:49;81343.84;;;-3.43;52.83
64711;BME280;51139;45.626;6.850;2022-12-07T07:14:15;81341.47;;;-3.41;51.86
64711;BME280;51139;45.626;6.850;2022-12-07T07:16:44;81341.63;;;-3.33;51.71
64711;BME280;51139;45.626;6.850;2022-12-07T07:19:09;81340.94;;;-3.33;52.19
64711;BME280;51139;45.626;6.850;2022-12-07T07:21:36;81339.63;;;-3.21;51.34
64711;BME280;51139;45.626;6.850;2022-12-07T07:24:01;81341.22;;;-3.18;50.47
64711;BME280;51139;45.626;6.850;2022-12-07T07:26:27;81347.72;;;-3.30;51.18
64711;BME280;51139;45.626;6.850;2022-12-07T07:28:52;81349.81;;;-3.29;51.18
64711;BME280;51139;45.626;6.850;2022-12-07T07:31:17;81338.97;;;-3.27;51.07
64711;BME280;51139;45.626;6.850;2022-12-07T07:33:45;81339.25;;;-3.31;50.76
64711;BME280;51139;45.626;6.850;2022-12-07T07:36:11;81347.06;;;-3.12;50.26
64711;BME280;51139;45.626;6.850;2022-12-07T07:38:36;81350.66;;;-3.20;50.23
64711;BME280;51139;45.626;6.850;2022-12-07T07:41:01;81354.41;;;-3.16;50.13
64711;BME280;51139;45.626;6.850;2022-12-07T07:43:27;81351.97;;;-3.08;50.16
64711;BME280;51139;45.626;6.850;2022-12-07T07:45:52;81344.84;;;-3.02;49.57
64711;BME280;51139;45.626;6.850;2022-12-07T07:48:17;81349.31;;;-2.83;49.88
64711;BME280;51139;45.626;6.850;2022-12-07T07:50:43;81353.81;;;-2.45;48.83
64711;BME280;51139;45.626;6.850;2022-12-07T07:53:08;81345.94;;;-2.07;48.55
64711;BME280;51139;45.626;6.850;2022-12-07T07:55:33;81347.56;;;-1.71;48.16
64711;BME280;51139;45.626;6.850;2022-12-07T07:57:59;81346.00;;;-1.34;47.24
64711;BME280;51139;45.626;6.850;2022-12-07T08:00:24;81342.13;;;-1.14;46.24
64711;BME280;51139;45.626;6.850;2022-12-07T08:02:50;81339.91;;;-0.83;44.73
64711;BME280;51139;45.626;6.850;2022-12-07T08:05:15;81334.56;;;-0.16;43.44
64711;BME280;51139;45.626;6.850;2022-12-07T08:07:40;81342.44;;;0.27;42.50
64711;BME280;51139;45.626;6.850;2022-12-07T08:10:07;81335.75;;;0.39;42.96
64711;BME280;51139;45.626;6.850;2022-12-07T08:12:38;81337.22;;;0.98;42.14
64711;BME280;51139;45.626;6.850;2022-12-07T08:15:25;81335.75;;;0.61;42.93
64711;BME280;51139;45.626;6.850;2022-12-07T08:17:51;81340.72;;;1.01;41.21
64711;BME280;51139;45.626;6.850;2022-12-07T08:20:16;81335.00;;;2.36;39.66
64711;BME280;51139;45.626;6.850;2022-12-07T08:22:42;81327.38;;;3.24;36.71
64711;BME280;51139;45.626;6.850;2022-12-07T08:25:07;81331.38;;;3.17;37.41
64711;BME280;51139;45.626;6.850;2022-12-07T08:27:33;81340.13;;;3.99;37.53
64711;BME280;51139;45.626;6.850;2022-12-07T08:29:58;81336.56;;;4.20;37.13
64711;BME280;51139;45.626;6.850;2022-12-07T08:32:23;81333.34;;;4.70;34.86
64711;BME280;51139;45.626;6.850;2022-12-07T08:34:49;81333.50;;;3.98;35.11
64711;BME280;51139;45.626;6.850;2022-12-07T08:37:15;81331.78;;;4.67;33.64
64711;BME280;51139;45.626;6.850;2022-12-07T08:39:40;81332.34;;;5.16;31.54
64711;BME280;51139;45.626;6.850;2022-12-07T08:42:05;81332.75;;;4.79;33.96
64711;BME280;51139;45.626;6.850;2022-12-07T08:44:31;81333.25;;;5.11;35.21
64711;BME280;51139;45.626;6.850;2022-12-07T08:46:58;81330.78;;;5.38;33.81
64711;BME280;51139;45.626;6.850;2022-12-07T08:49:33;81334.84;;;5.32;33.76
64711;BME280;51139;45.626;6.850;2022-12-07T08:52:01;81335.53;;;4.81;33.30
64711;BME280;51139;45.626;6.850;2022-12-07T08:54:28;81328.22;;;5.05;33.37
64711;BME280;51139;45.626;6.850;2022-12-07T08:56:54;81334.19;;;5.49;31.63
64711;BME280;51139;45.626;6.850;2022-12-07T08:59:21;81335.66;;;5.17;32.83
64711;BME280;51139;45.626;6.850;2022-12-07T09:01:47;81338.81;;;6.36;29.80
64711;BME280;51139;45.626;6.850;2022-12-07T09:04:13;81336.38;;;6.66;29.18
64711;BME280;51139;45.626;6.850;2022-12-07T09:06:38;81340.09;;;5.92;29.56
64711;BME280;51139;45.626;6.850;2022-12-07T09:09:04;81341.03;;;5.87;32.18
64711;BME280;51139;45.626;6.850;2022-12-07T09:11:29;81336.69;;;5.64;32.97
64711;BME280;51139;45.626;6.850;2022-12-07T09:13:55;81338.84;;;6.01;32.03
64711;BME280;51139;45.626;6.850;2022-12-07T09:16:21;81343.78;;;6.15;33.96
64711;BME280;51139;45.626;6.850;2022-12-07T09:18:46;81338.81;;;6.19;33.05
64711;BME280;51139;45.626;6.850;2022-12-07T09:21:11;81348.09;;;6.37;32.32
64711;BME280;51139;45.626;6.850;2022-12-07T09:23:37;81337.16;;;7.98;29.65
64711;BME280;51139;45.626;6.850;2022-12-07T09:26:03;81338.66;;;7.07;30.61
64711;BME280;51139;45.626;6.850;2022-12-07T09:28:30;81339.25;;;7.15;30.76
64711;BME280;51139;45.626;6.850;2022-12-07T09:30:55;81333.72;;;8.25;30.11
64711;BME280;51139;45.626;6.850;2022-12-07T09:33:21;81324.28;;;7.55;32.19
64711;BME280;51139;45.626;6.850;2022-12-07T09:35:47;81329.50;;;7.82;30.41
64711;BME280;51139;45.626;6.850;2022-12-07T09:38:13;81327.19;;;8.06;30.27
64711;BME280;51139;45.626;6.850;2022-12-07T09:40:39;81328.16;;;8.99;30.25
64711;BME280;51139;45.626;6.850;2022-12-07T09:43:11;81329.16;;;8.65;30.07
64711;BME280;51139;45.626;6.850;2022-12-07T09:45:38;81323.84;;;9.04;28.76
64711;BME280;51139;45.626;6.850;2022-12-07T09:48:04;81322.94;;;9.41;29.77
64711;BME280;51139;45.626;6.850;2022-12-07T09:50:29;81321.81;;;9.34;30.10
64711;BME280;51139;45.626;6.850;2022-12-07T09:53:14;81327.06;;;8.33;32.86
64711;BME280;51139;45.626;6.850;2022-12-07T09:55:41;81320.16;;;9.39;29.68
64711;BME280;51139;45.626;6.850;2022-12-07T09:58:28;81321.81;;;9.75;30.52
64711;BME280;51139;45.626;6.850;2022-12-07T10:03:37;81317.44;;;9.58;30.18
64711;BME280;51139;45.626;6.850;2022-12-07T10:06:05;81316.97;;;9.30;30.63
64711;BME280;51139;45.626;6.850;2022-12-07T10:08:31;81313.31;;;8.45;32.44
64711;BME280;51139;45.626;6.850;2022-12-07T10:10:57;81316.16;;;9.18;30.77
64711;BME280;51139;45.626;6.850;2022-12-07T10:13:43;81313.09;;;9.22;30.29
64711;BME280;51139;45.626;6.850;2022-12-07T10:16:34;81313.25;;;7.29;34.22
64711;BME280;51139;45.626;6.850;2022-12-07T10:19:24;81305.59;;;6.86;36.46
64711;BME280;51139;45.626;6.850;2022-12-07T10:24:35;81312.28;;;5.89;38.53
64711;BME280;51139;45.626;6.850;2022-12-07T10:27:02;81320.78;;;5.80;39.39
64711;BME280;51139;45.626;6.850;2022-12-07T10:29:33;81307.41;;;6.38;35.61
64711;BME280;51139;45.626;6.850;2022-12-07T10:34:35;81301.97;;;5.05;39.68
64711;BME280;51139;45.626;6.850;2022-12-07T10:39:51;81304.97;;;4.76;40.28
64711;BME280;51139;45.626;6.850;2022-12-07T10:42:28;81299.03;;;4.43;42.41
64711;BME280;51139;45.626;6.850;2022-12-07T10:45:23;81290.06;;;4.53;41.58
64711;BME280;51139;45.626;6.850;2022-12-07T11:01:25;81285.28;;;3.93;44.87
64711;BME280;51139;45.626;6.850;2022-12-07T11:04:15;81264.50;;;4.29;43.00
64711;BME280;51139;45.626;6.850;2022-12-07T11:07:02;81273.00;;;4.37;45.45
64711;BME280;51139;45.626;6.850;2022-12-07T11:12:09;81271.53;;;4.18;44.04
64711;BME280;51139;45.626;6.850;2022-12-07T11:17:48;81261.44;;;4.15;46.50
64711;BME280;51139;45.626;6.850;2022-12-07T11:20:55;81261.59;;;4.17;45.01
64711;BME280;51139;45.626;6.850;2022-12-07T11:23:42;81254.81;;;3.73;45.94
64711;BME280;51139;45.626;6.850;2022-12-07T11:32:07;81260.50;;;3.87;46.62
64711;BME280;51139;45.626;6.850;2022-12-07T11:37:38;81262.81;;;4.16;44.14
64711;BME280;51139;45.626;6.850;2022-12-07T11:45:39;81255.63;;;3.83;48.22
64711;BME280;51139;45.626;6.850;2022-12-07T11:50:48;81252.66;;;4.20;47.59
64711;BME280;51139;45.626;6.850;2022-12-07T11:53:21;81248.28;;;3.89;48.56
64711;BME280;51139;45.626;6.850;2022-12-07T12:03:47;81239.28;;;4.08;47.88
64711;BME280;51139;45.626;6.850;2022-12-07T12:06:13;81234.59;;;3.99;48.98
64711;BME280;51139;45.626;6.850;2022-12-07T12:12:01;81233.97;;;3.83;47.15
64711;BME280;51139;45.626;6.850;2022-12-07T12:22:46;81229.75;;;3.54;49.13
64711;BME280;51139;45.626;6.850;2022-12-07T12:25:27;81223.72;;;3.69;46.24
64711;BME280;51139;45.626;6.850;2022-12-07T12:27:55;81224.47;;;3.62;45.90
64711;BME280;51139;45.626;6.850;2022-12-07T12:30:37;81225.81;;;3.71;47.10
64711;BME280;51139;45.626;6.850;2022-12-07T12:33:16;81226.94;;;3.52;49.42
64711;BME280;51139;45.626;6.850;2022-12-07T12:35:43;81222.22;;;3.58;48.81
64711;BME280;51139;45.626;6.850;2022-12-07T12:38:32;81227.78;;;3.62;47.38
64711;BME280;51139;45.626;6.850;2022-12-07T12:41:02;81229.28;;;3.73;47.21
64711;BME280;51139;45.626;6.850;2022-12-07T12:43:51;81222.97;;;3.43;47.13
64711;BME280;51139;45.626;6.850;2022-12-07T12:46:48;81224.13;;;3.58;47.62
64711;BME280;51139;45.626;6.850;2022-12-07T12:49:32;81224.88;;;3.84;46.26
64711;BME280;51139;45.626;6.850;2022-12-07T12:51:58;81225.50;;;3.67;47.02
64711;BME280;51139;45.626;6.850;2022-12-07T12:54:33;81209.31;;;3.53;49.25
64711;BME280;51139;45.626;6.850;2022-12-07T13:13:25;81207.69;;;3.65;47.52
64711;BME280;51139;45.626;6.850;2022-12-07T13:15:52;81215.03;;;3.67;49.67
64711;BME280;51139;45.626;6.850;2022-12-07T13:26:23;81204.34;;;3.24;45.27
64711;BME280;51139;45.626;6.850;2022-12-07T13:29:17;81199.97;;;3.26;48.98
64711;BME280;51139;45.626;6.850;2022-12-07T13:34:40;81194.22;;;3.28;46.47
64711;BME280;51139;45.626;6.850;2022-12-07T13:37:27;81198.63;;;3.17;45.71
64711;BME280;51139;45.626;6.850;2022-12-07T13:39:56;81186.53;;;3.30;46.82
64711;BME280;51139;45.626;6.850;2022-12-07T13:42:30;81188.41;;;3.37;46.04
64711;BME280;51139;45.626;6.850;2022-12-07T13:44:57;81191.06;;;3.29;47.73
64711;BME280;51139;45.626;6.850;2022-12-07T13:47:47;81182.97;;;3.43;46.96
64711;BME280;51139;45.626;6.850;2022-12-07T13:52:55;81187.59;;;3.27;46.78
64711;BME280;51139;45.626;6.850;2022-12-07T13:55:21;81191.75;;;3.30;46.35
64711;BME280;51139;45.626;6.850;2022-12-07T13:57:51;81185.03;;;3.11;47.92
64711;BME280;51139;45.626;6.850;2022-12-07T14:00:20;81192.16;;;3.11;49.25
64711;BME280;51139;45.626;6.850;2022-12-07T14:03:23;81190.50;;;2.82;48.05
64711;BME280;51139;45.626;6.850;2022-12-07T14:05:46;81195.50;;;3.11;47.52
64711;BME280;51139;45.626;6.850;2022-12-07T14:10:41;81196.72;;;3.02;48.33
64711;BME280;51139;45.626;6.850;2022-12-07T14:13:59;81184.66;;;3.07;48.54
64711;BME280;51139;45.626;6.850;2022-12-07T14:16:25;81191.66;;;2.97;48.57
64711;BME280;51139;45.626;6.850;2022-12-07T14:18:52;81187.50;;;3.01;47.93
64711;BME280;51139;45.626;6.850;2022-12-07T14:21:20;81195.00;;;2.89;48.11
64711;BME280;51139;45.626;6.850;2022-12-07T14:26:35;81194.19;;;2.56;50.37
64711;BME280;51139;45.626;6.850;2022-12-07T14:31:47;81192.97;;;2.65;48.66
64711;BME280;51139;45.626;6.850;2022-12-07T14:34:13;81202.03;;;2.17;48.84
64711;BME280;51139;45.626;6.850;2022-12-07T14:36:39;81201.34;;;2.32;51.24
64711;BME280;51139;45.626;6.850;2022-12-07T14:39:04;81204.66;;;2.32;51.00
64711;BME280;51139;45.626;6.850;2022-12-07T14:41:29;81200.47;;;2.53;48.70
64711;BME280;51139;45.626;6.850;2022-12-07T14:44:13;81198.69;;;2.71;50.74
64711;BME280;51139;45.626;6.850;2022-12-07T14:46:39;81199.06;;;1.97;51.71
64711;BME280;51139;45.626;6.850;2022-12-07T14:49:04;81189.78;;;1.50;50.79
64711;BME280;51139;45.626;6.850;2022-12-07T14:51:30;81201.00;;;2.12;51.60
64711;BME280;51139;45.626;6.850;2022-12-07T14:53:56;81201.31;;;1.93;52.97
64711;BME280;51139;45.626;6.850;2022-12-07T14:56:22;81201.88;;;2.07;52.27
64711;BME280;51139;45.626;6.850;2022-12-07T14:58:47;81202.19;;;2.03;51.96
64711;BME280;51139;45.626;6.850;2022-12-07T15:01:13;81195.22;;;1.83;52.33
64711;BME280;51139;45.626;6.850;2022-12-07T15:03:39;81192.81;;;2.39;50.88
64711;BME280;51139;45.626;6.850;2022-12-07T15:06:05;81198.38;;;1.89;51.86
64711;BME280;51139;45.626;6.850;2022-12-07T15:08:31;81194.75;;;2.23;50.62
64711;BME280;51139;45.626;6.850;2022-12-07T15:10:57;81198.91;;;2.18;50.22
64711;BME280;51139;45.626;6.850;2022-12-07T15:13:22;81202.75;;;2.17;49.18
64711;BME280;51139;45.626;6.850;2022-12-07T15:16:10;81195.78;;;2.12;50.75
64711;BME280;51139;45.626;6.850;2022-12-07T15:18:36;81191.75;;;2.19;50.21
64711;BME280;51139;45.626;6.850;2022-12-07T15:21:02;81188.63;;;2.28;48.69
64711;BME280;51139;45.626;6.850;2022-12-07T15:23:28;81196.47;;;2.44;47.42
64711;BME280;51139;45.626;6.850;2022-12-07T15:25:54;81191.09;;;2.26;48.32
64711;BME280;51139;45.626;6.850;2022-12-07T15:28:19;81196.81;;;2.17;48.36